Time;durP1;ratioP1;P1;durP2;ratioP2;P2;SDS_P1;SDS_P2;PMS_P1;PMS_P2;Temp;Humidity;BMP_temperature;BMP_pressure;BME280_temperature;BME280_humidity;BME280_pressure;Samples;Min_cycle;Max_cycle;Signal;HPM_P1;HPM_P2
2023/07/18 00:01:43;;;;;;;18.13;16.83;;;;;;;24.80;38.13;100426.25;4819651;29;97449;-78
2023/07/18 00:04:09;;;;;;;19.27;17.60;;;;;;;24.69;38.00;100419.19;4821446;29;96935;-78
2023/07/18 00:06:38;;;;;;;18.30;16.80;;;;;;;24.80;38.11;100434.31;4825056;29;99330;-79
2023/07/18 00:09:04;;;;;;;18.63;16.75;;;;;;;24.77;38.30;100442.66;4810029;29;98473;-80
2023/07/18 00:11:29;;;;;;;19.30;17.48;;;;;;;24.69;38.45;100439.81;4819621;29;97661;-79
2023/07/18 00:13:55;;;;;;;19.40;17.92;;;;;;;24.80;38.23;100450.44;4823271;29;96843;-78
2023/07/18 00:16:20;;;;;;;18.98;17.23;;;;;;;24.76;38.45;100447.19;4814386;29;99142;-78
2023/07/18 00:18:46;;;;;;;17.50;16.13;;;;;;;24.74;38.35;100448.31;4821114;29;98474;-78
2023/07/18 00:21:12;;;;;;;18.08;16.55;;;;;;;24.67;38.45;100442.66;4815457;29;97306;-79
2023/07/18 00:23:37;;;;;;;18.95;17.30;;;;;;;24.67;38.73;100444.47;4807016;29;96960;-78
2023/07/18 00:26:03;;;;;;;18.25;16.58;;;;;;;24.65;38.86;100447.31;4806114;29;98967;-78
2023/07/18 00:28:28;;;;;;;17.15;15.88;;;;;;;24.69;38.76;100434.44;4815726;29;98223;-79
2023/07/18 00:30:54;;;;;;;17.05;15.65;;;;;;;24.72;38.57;100434.16;4826439;29;97360;-79
2023/07/18 00:33:19;;;;;;;17.75;16.35;;;;;;;24.75;38.71;100442.78;4820856;29;97989;-79
2023/07/18 00:35:46;;;;;;;18.58;16.65;;;;;;;24.67;38.92;100457.88;4815804;29;98743;-78
2023/07/18 00:38:11;;;;;;;16.85;15.75;;;;;;;24.60;39.10;100468.34;4800977;29;98680;-78
2023/07/18 00:40:40;;;;;;;17.40;15.98;;;;;;;24.59;39.56;100469.34;4817094;29;96887;-79
2023/07/18 00:43:13;;;;;;;17.45;16.25;;;;;;;24.68;39.29;100473.88;4811938;29;96953;-79
2023/07/18 00:45:41;;;;;;;17.60;16.00;;;;;;;24.69;39.70;100478.22;4801309;29;98723;-79
2023/07/18 00:48:07;;;;;;;18.13;16.83;;;;;;;24.67;40.07;100484.72;4833020;29;98449;-78
2023/07/18 00:50:33;;;;;;;17.90;16.50;;;;;;;24.55;40.34;100503.66;4833390;29;97517;-79
2023/07/18 00:53:00;;;;;;;18.42;16.90;;;;;;;24.53;40.60;100505.63;4791560;29;97022;-79
2023/07/18 00:55:27;;;;;;;18.25;16.92;;;;;;;24.48;40.81;100502.50;4808480;29;98872;-79
2023/07/18 00:57:53;;;;;;;17.30;15.88;;;;;;;24.37;41.16;100518.66;4809474;29;98470;-79
2023/07/18 01:00:22;;;;;;;17.60;16.40;;;;;;;24.36;41.32;100514.28;4810430;29;96886;-79
2023/07/18 01:02:49;;;;;;;17.55;16.15;;;;;;;24.27;41.62;100524.00;4804670;29;97429;-79
2023/07/18 01:05:17;;;;;;;16.92;15.27;;;;;;;24.10;41.91;100522.81;4802106;29;100434;-79
2023/07/18 01:07:43;;;;;;;17.38;16.02;;;;;;;24.06;42.05;100528.59;4819443;29;98636;-78
2023/07/18 01:10:41;;;;;;;17.80;16.67;;;;;;;24.00;42.30;100529.09;4817655;29;97275;-79
2023/07/18 01:13:06;;;;;;;16.85;15.25;;;;;;;23.94;42.56;100515.25;4770949;29;96914;-78
2023/07/18 01:15:33;;;;;;;16.65;15.60;;;;;;;23.97;42.43;100513.28;4815460;29;99360;-79
2023/07/18 01:18:03;;;;;;;17.67;16.30;;;;;;;23.89;42.55;100525.53;4812136;29;98826;-78
2023/07/18 01:20:29;;;;;;;16.88;15.60;;;;;;;23.80;42.61;100515.63;4804149;29;96895;-79
2023/07/18 01:22:59;;;;;;;18.50;16.67;;;;;;;23.75;42.77;100520.50;4812279;29;97029;-79
2023/07/18 01:25:26;;;;;;;17.65;16.27;;;;;;;23.85;42.92;100529.47;4819340;29;98119;-79
2023/07/18 01:27:54;;;;;;;16.75;15.43;;;;;;;23.86;43.00;100524.94;4829447;29;97753;-80
2023/07/18 01:30:24;;;;;;;17.23;15.90;;;;;;;23.77;43.21;100533.78;4820758;29;97296;-79
2023/07/18 01:32:50;;;;;;;17.90;16.35;;;;;;;23.75;43.05;100525.88;4825149;29;96731;-79
2023/07/18 01:35:19;;;;;;;17.20;15.90;;;;;;;23.71;43.43;100538.69;4819624;29;97992;-79
2023/07/18 01:37:46;;;;;;;17.08;15.75;;;;;;;23.67;43.60;100544.41;4816557;29;99686;-78
2023/07/18 01:40:13;;;;;;;18.15;16.75;;;;;;;23.70;43.57;100538.81;4816715;29;96804;-79
2023/07/18 01:42:40;;;;;;;16.73;15.52;;;;;;;23.71;43.75;100541.38;4816607;29;97243;-79
2023/07/18 01:45:06;;;;;;;16.10;15.00;;;;;;;23.69;43.82;100539.78;4819398;29;98729;-79
2023/07/18 01:47:32;;;;;;;16.90;15.48;;;;;;;23.61;43.90;100544.94;4817389;29;98504;-79
2023/07/18 01:50:03;;;;;;;17.75;16.15;;;;;;;23.58;44.01;100538.00;4807915;29;97098;-79
2023/07/18 01:52:29;;;;;;;17.15;16.02;;;;;;;23.56;44.03;100541.78;4808456;29;96847;-79
2023/07/18 01:54:58;;;;;;;16.23;15.20;;;;;;;23.55;44.13;100535.59;4817883;29;98903;-79
2023/07/18 01:57:50;;;;;;;17.35;16.10;;;;;;;23.45;44.45;100540.88;4799323;29;100248;-79
2023/07/18 02:00:21;;;;;;;16.67;15.52;;;;;;;23.36;44.67;100559.53;4792069;29;97296;-79
2023/07/18 02:02:49;;;;;;;16.92;15.82;;;;;;;23.32;44.78;100560.78;4815667;29;96872;-79
2023/07/18 02:05:18;;;;;;;16.42;15.20;;;;;;;23.29;45.04;100556.53;4811253;29;101167;-79
2023/07/18 02:07:44;;;;;;;17.73;16.40;;;;;;;23.18;45.15;100556.56;4786879;29;98508;-79
2023/07/18 02:10:10;;;;;;;17.02;15.70;;;;;;;23.05;45.51;100562.09;4812982;29;96724;-79
2023/07/18 02:12:37;;;;;;;16.10;14.65;;;;;;;22.94;45.58;100568.31;4800925;29;97484;-79
2023/07/18 02:15:05;;;;;;;18.27;16.77;;;;;;;22.88;46.06;100571.47;4795231;29;100804;-79
2023/07/18 02:17:32;;;;;;;18.00;16.70;;;;;;;22.77;46.23;100566.16;4824907;29;97142;-79
2023/07/18 02:19:58;;;;;;;18.42;16.98;;;;;;;22.83;46.20;100582.59;4822778;29;96731;-79
2023/07/18 02:22:24;;;;;;;16.75;15.57;;;;;;;22.74;46.35;100575.28;4818904;29;97057;-79
2023/07/18 02:24:49;;;;;;;16.83;15.48;;;;;;;22.73;46.51;100594.16;4804988;29;98612;-79
2023/07/18 02:27:15;;;;;;;18.77;17.20;;;;;;;22.66;46.98;100596.47;4801588;29;98806;-79
2023/07/18 02:29:40;;;;;;;16.85;15.57;;;;;;;22.54;47.10;100600.97;4823173;29;97028;-79
2023/07/18 02:32:06;;;;;;;17.95;16.48;;;;;;;22.50;47.09;100604.00;4807440;29;96886;-79
2023/07/18 02:34:33;;;;;;;17.42;16.23;;;;;;;22.41;47.34;100608.25;4811665;29;97988;-79
2023/07/18 02:36:58;;;;;;;16.83;15.73;;;;;;;22.45;47.15;100607.03;4802188;29;98431;-80
2023/07/18 02:39:24;;;;;;;17.42;16.05;;;;;;;22.40;47.12;100603.03;4809801;29;96839;-79
2023/07/18 02:41:49;;;;;;;18.70;16.77;;;;;;;22.33;47.36;100600.00;4818129;29;96967;-79
2023/07/18 02:44:15;;;;;;;18.02;16.40;;;;;;;22.24;47.44;100598.91;4790836;29;99610;-79
2023/07/18 02:46:41;;;;;;;16.70;15.57;;;;;;;22.19;47.71;100605.56;4795584;29;100390;-79
2023/07/18 02:49:06;;;;;;;17.30;16.08;;;;;;;22.12;47.82;100616.72;4803672;29;96731;-79
2023/07/18 02:51:32;;;;;;;17.58;16.27;;;;;;;22.03;48.12;100617.44;4828234;29;96981;-79
2023/07/18 02:53:57;;;;;;;18.30;16.92;;;;;;;22.01;48.11;100615.84;4824809;29;98682;-79
2023/07/18 02:56:23;;;;;;;18.25;16.77;;;;;;;21.96;48.43;100610.00;4806240;29;100063;-79
2023/07/18 02:58:49;;;;;;;16.98;15.77;;;;;;;21.91;48.49;100623.72;4817588;29;96863;-79
2023/07/18 03:01:18;;;;;;;17.75;16.52;;;;;;;21.84;48.70;100625.16;4820035;29;96867;-79
2023/07/18 03:03:44;;;;;;;17.80;16.40;;;;;;;21.88;48.47;100618.63;4821161;29;99194;-80
2023/07/18 03:06:09;;;;;;;18.77;17.13;;;;;;;21.85;48.48;100617.03;4820044;29;98628;-79
2023/07/18 03:08:36;;;;;;;18.05;16.80;;;;;;;21.89;48.49;100626.50;4819685;29;97025;-79
2023/07/18 03:11:02;;;;;;;18.73;17.33;;;;;;;21.98;48.33;100630.28;4818866;29;97198;-80
2023/07/18 03:13:28;;;;;;;18.10;16.70;;;;;;;21.97;48.30;100633.94;4795649;29;100696;-79
2023/07/18 03:15:56;;;;;;;17.27;15.50;;;;;;;21.94;48.32;100628.84;4811255;29;97276;-79
2023/07/18 03:18:22;;;;;;;18.48;16.60;;;;;;;21.87;48.50;100628.44;4801756;29;96946;-79
2023/07/18 03:20:48;;;;;;;17.45;16.23;;;;;;;21.82;48.84;100632.44;4799287;29;96920;-79
2023/07/18 03:23:14;;;;;;;18.23;16.63;;;;;;;21.77;48.90;100631.94;4815433;29;97731;-79
2023/07/18 03:25:39;;;;;;;18.33;16.60;;;;;;;21.71;48.89;100627.91;4817104;29;98584;-80
2023/07/18 03:28:07;;;;;;;17.58;16.42;;;;;;;21.74;49.12;100635.69;4818373;29;97055;-80
2023/07/18 03:30:33;;;;;;;17.35;16.20;;;;;;;21.77;48.83;100638.13;4819186;29;97516;-80
2023/07/18 03:32:59;;;;;;;17.42;16.08;;;;;;;21.77;49.14;100640.81;4818592;29;98617;-80
2023/07/18 03:35:26;;;;;;;18.00;16.33;;;;;;;21.72;49.21;100639.44;4800389;29;100490;-79
2023/07/18 03:37:52;;;;;;;18.15;16.40;;;;;;;21.72;49.24;100636.78;4820188;29;96813;-80
2023/07/18 03:40:17;;;;;;;17.80;16.60;;;;;;;21.77;48.82;100632.78;4820440;29;96949;-80
2023/07/18 03:42:44;;;;;;;17.50;16.35;;;;;;;21.82;48.84;100640.47;4824184;29;99303;-81
2023/07/18 03:45:12;;;;;;;15.68;14.68;;;;;;;21.85;48.98;100642.91;4817979;29;98862;-80
2023/07/18 03:47:41;;;;;;;16.48;15.00;;;;;;;21.84;48.83;100644.69;4817968;29;98400;-79
2023/07/18 03:50:09;;;;;;;16.55;15.32;;;;;;;21.85;49.01;100648.25;4810008;29;96873;-79
2023/07/18 03:52:35;;;;;;;17.25;15.80;;;;;;;21.82;49.01;100649.34;4817421;29;99625;-80
2023/07/18 03:55:00;;;;;;;17.50;16.15;;;;;;;21.83;49.22;100655.53;4811850;29;97149;-79
2023/07/18 03:57:27;;;;;;;16.90;15.57;;;;;;;21.74;49.14;100664.25;4816070;29;96740;-79
2023/07/18 03:59:52;;;;;;;16.67;15.30;;;;;;;21.67;49.19;100672.72;4808475;29;96888;-80
2023/07/18 04:02:18;;;;;;;17.48;15.93;;;;;;;21.69;49.29;100664.56;4810188;29;98614;-79
2023/07/18 04:04:43;;;;;;;17.83;16.15;;;;;;;21.77;49.16;100672.88;4812080;29;98526;-80
2023/07/18 04:07:09;;;;;;;17.92;16.60;;;;;;;21.83;49.06;100680.41;4816615;29;97052;-80
2023/07/18 04:09:34;;;;;;;18.00;16.80;;;;;;;21.90;48.98;100672.78;4810412;29;96910;-80
2023/07/18 04:12:00;;;;;;;18.13;16.17;;;;;;;21.91;49.17;100679.84;4811707;29;98719;-80
2023/07/18 04:14:26;;;;;;;16.65;15.23;;;;;;;21.98;48.82;100674.88;4800080;29;98666;-79
2023/07/18 04:16:52;;;;;;;18.40;16.83;;;;;;;22.02;48.82;100679.88;4802471;29;97163;-80
2023/07/18 04:19:18;;;;;;;18.65;17.10;;;;;;;22.12;48.26;100678.19;4812761;29;96859;-79
2023/07/18 04:21:44;;;;;;;20.13;15.65;;;;;;;22.21;48.18;100674.00;4812122;29;99012;-80
2023/07/18 04:24:10;;;;;;;17.45;15.75;;;;;;;22.26;48.03;100676.31;4815589;29;98339;-79
2023/07/18 04:26:36;;;;;;;19.00;17.55;;;;;;;22.29;47.87;100676.94;4811630;29;97240;-79
2023/07/18 04:29:04;;;;;;;18.88;17.25;;;;;;;22.44;47.55;100679.38;4815425;29;96881;-79
2023/07/18 04:31:29;;;;;;;18.02;16.67;;;;;;;22.49;47.47;100671.88;4810759;29;98736;-79
2023/07/18 04:33:55;;;;;;;16.92;15.80;;;;;;;22.61;47.29;100681.59;4818036;29;98494;-79
2023/07/18 04:36:20;;;;;;;18.02;16.67;;;;;;;22.73;47.04;100683.28;4817927;29;96984;-80
2023/07/18 04:38:46;;;;;;;18.30;17.00;;;;;;;22.81;46.95;100675.50;4808779;29;97367;-80
2023/07/18 04:41:11;;;;;;;17.92;16.63;;;;;;;22.90;46.47;100681.09;4810734;29;98811;-79
2023/07/18 04:43:37;;;;;;;19.00;17.40;;;;;;;22.92;46.41;100690.72;4804449;29;98339;-79
2023/07/18 04:46:04;;;;;;;18.10;16.38;;;;;;;23.03;46.31;100684.50;4814479;29;96995;-79
2023/07/18 04:48:29;;;;;;;19.00;17.33;;;;;;;23.10;46.14;100679.53;4802413;29;96948;-79
2023/07/18 04:50:59;;;;;;;18.67;17.10;;;;;;;23.22;46.12;100686.56;4804520;29;99113;-80
2023/07/18 04:53:26;;;;;;;19.85;18.05;;;;;;;23.31;45.92;100688.50;4801709;29;98273;-79
2023/07/18 04:55:52;;;;;;;19.08;17.58;;;;;;;23.37;45.57;100682.63;4825582;29;97244;-79
2023/07/18 04:58:18;;;;;;;18.08;16.77;;;;;;;23.53;45.32;100684.88;4812626;29;97488;-79
2023/07/18 05:00:43;;;;;;;18.73;17.30;;;;;;;23.65;45.55;100693.72;4820140;29;99305;-79
2023/07/18 05:03:09;;;;;;;18.67;17.38;;;;;;;23.77;44.73;100694.59;4820415;29;98384;-79
2023/07/18 05:05:35;;;;;;;19.85;18.30;;;;;;;23.79;44.29;100689.94;4819353;29;97124;-79
2023/07/18 05:08:01;;;;;;;18.85;17.35;;;;;;;23.94;44.17;100694.88;4817616;29;96994;-79
2023/07/18 05:10:27;;;;;;;17.05;15.88;;;;;;;24.13;43.68;100696.00;4819819;29;98932;-79
2023/07/18 05:12:54;;;;;;;19.88;18.13;;;;;;;24.14;43.18;100695.88;4820284;29;98416;-79
2023/07/18 05:15:20;;;;;;;19.27;17.58;;;;;;;24.24;42.81;100697.75;4819491;29;97378;-79
2023/07/18 05:17:46;;;;;;;19.02;17.63;;;;;;;24.47;42.32;100709.25;4821588;29;96920;-79
2023/07/18 05:20:12;;;;;;;17.45;16.33;;;;;;;24.74;41.74;100706.81;4823913;29;98871;-80
2023/07/18 05:22:41;;;;;;;18.30;17.00;;;;;;;25.11;41.24;100717.00;4820771;29;98491;-80
2023/07/18 05:25:08;;;;;;;19.63;18.10;;;;;;;25.17;40.79;100711.13;4816965;29;96833;-79
2023/07/18 05:27:34;;;;;;;19.33;17.88;;;;;;;25.02;40.94;100720.50;4813989;29;96821;-80
2023/07/18 05:30:00;;;;;;;17.65;16.45;;;;;;;25.37;40.33;100716.53;4819143;29;98617;-80
2023/07/18 05:32:26;;;;;;;18.33;16.92;;;;;;;25.64;39.64;100715.88;4812239;29;98363;-80
2023/07/18 05:34:51;;;;;;;19.63;18.08;;;;;;;25.48;39.87;100725.34;4813450;29;96964;-79
2023/07/18 05:37:17;;;;;;;18.55;17.25;;;;;;;25.78;39.47;100714.63;4814559;29;96839;-79
2023/07/18 05:39:43;;;;;;;18.27;16.67;;;;;;;26.34;38.65;100722.78;4810560;29;98694;-79
2023/07/18 05:42:08;;;;;;;18.15;16.75;;;;;;;26.79;38.07;100718.59;4817873;29;98370;-79
2023/07/18 05:44:34;;;;;;;18.63;17.42;;;;;;;27.20;37.32;100722.69;4814042;29;96924;-79
2023/07/18 05:46:59;;;;;;;17.90;16.70;;;;;;;27.42;36.17;100709.78;4815947;29;97175;-78
2023/07/18 05:49:26;;;;;;;17.48;16.38;;;;;;;28.02;35.65;100706.53;4811453;29;98848;-79
2023/07/18 05:51:52;;;;;;;17.88;16.42;;;;;;;28.47;34.97;100725.25;4819560;29;98802;-79
2023/07/18 05:54:17;;;;;;;18.38;16.98;;;;;;;29.24;33.68;100717.25;4806382;29;96748;-79
2023/07/18 05:56:43;;;;;;;17.98;16.52;;;;;;;30.09;32.81;100723.31;4810601;29;96992;-78
2023/07/18 05:59:09;;;;;;;18.45;16.88;;;;;;;31.11;31.22;100724.47;4814584;29;98634;-78
2023/07/18 06:01:35;;;;;;;17.38;16.10;;;;;;;32.46;29.19;100714.09;4818279;29;98372;-79
2023/07/18 06:04:00;;;;;;;17.05;15.95;;;;;;;34.19;27.46;100720.78;4818792;29;97054;-79
2023/07/18 06:06:26;;;;;;;18.02;16.73;;;;;;;35.75;25.16;100719.28;4809880;29;96909;-79
2023/07/18 06:08:51;;;;;;;18.48;17.15;;;;;;;37.12;23.55;100722.31;4808831;29;98748;-80
2023/07/18 06:11:18;;;;;;;17.30;15.80;;;;;;;37.14;23.00;100718.28;4819990;29;98315;-79
2023/07/18 06:13:44;;;;;;;17.70;16.38;;;;;;;37.97;22.25;100717.44;4814603;29;96796;-79
2023/07/18 06:16:10;;;;;;;18.48;17.20;;;;;;;38.70;21.71;100719.50;4815625;29;96933;-79
2023/07/18 06:18:36;;;;;;;19.08;17.88;;;;;;;39.53;20.85;100718.03;4824663;29;98654;-79
2023/07/18 06:21:05;;;;;;;17.30;16.02;;;;;;;40.34;20.14;100712.97;4822170;29;98209;-80
2023/07/18 06:23:31;;;;;;;18.17;16.98;;;;;;;40.95;19.69;100728.09;4820483;29;97667;-80
2023/07/18 06:25:57;;;;;;;18.05;16.85;;;;;;;41.17;19.43;100720.03;4824453;29;97133;-80
2023/07/18 06:28:22;;;;;;;18.20;16.83;;;;;;;41.57;18.82;100710.91;4814586;29;98917;-79
2023/07/18 06:30:53;;;;;;;18.13;16.92;;;;;;;41.85;18.48;100715.50;4818347;29;98436;-80
2023/07/18 06:33:19;;;;;;;18.27;17.13;;;;;;;42.32;18.52;100713.53;4825373;29;96743;-78
2023/07/18 06:35:52;;;;;;;18.08;16.67;;;;;;;42.41;18.34;100718.34;4814585;29;97642;-79
2023/07/18 06:38:18;;;;;;;18.73;17.52;;;;;;;42.95;17.90;100714.97;4824241;29;98728;-79
2023/07/18 06:40:47;;;;;;;18.80;17.50;;;;;;;42.79;18.04;100710.34;4818461;29;98540;-78
2023/07/18 06:43:16;;;;;;;18.40;16.70;;;;;;;43.09;18.08;100719.00;4817552;29;96837;-77
2023/07/18 06:45:48;;;;;;;17.58;16.38;;;;;;;43.22;18.29;100719.72;4818059;29;96891;-79
2023/07/18 06:48:14;;;;;;;18.23;16.90;;;;;;;43.43;17.87;100724.34;4812677;29;99347;-79
2023/07/18 06:50:47;;;;;;;18.73;17.35;;;;;;;43.34;17.41;100717.63;4812331;29;98324;-79
2023/07/18 06:53:18;;;;;;;17.92;16.77;;;;;;;43.76;17.23;100719.72;4822361;29;97291;-79
2023/07/18 06:55:51;;;;;;;18.15;16.95;;;;;;;44.01;17.31;100711.66;4803875;29;97072;-80
2023/07/18 06:58:17;;;;;;;18.58;17.38;;;;;;;44.09;17.25;100721.38;4818515;29;98850;-79
2023/07/18 07:00:44;;;;;;;19.55;18.27;;;;;;;43.22;17.42;100720.53;4820454;29;98821;-79
2023/07/18 07:03:10;;;;;;;18.60;17.20;;;;;;;43.09;17.34;100720.94;4818712;29;96705;-78
2023/07/18 07:05:39;;;;;;;19.08;17.67;;;;;;;43.63;17.67;100729.28;4813141;29;97288;-78
2023/07/18 07:08:09;;;;;;;18.52;17.33;;;;;;;43.23;17.48;100719.47;4809246;29;98737;-79
2023/07/18 07:10:35;;;;;;;17.88;16.77;;;;;;;43.27;17.20;100723.38;4814059;29;98348;-79
2023/07/18 07:13:01;;;;;;;17.05;15.88;;;;;;;43.06;17.15;100719.53;4807988;29;97344;-79
2023/07/18 07:15:26;;;;;;;17.92;16.58;;;;;;;42.63;17.30;100712.88;4816630;29;97459;-79
2023/07/18 07:17:52;;;;;;;18.73;17.38;;;;;;;41.67;17.97;100714.91;4814942;29;98907;-79
2023/07/18 07:20:19;;;;;;;18.48;17.10;;;;;;;42.26;17.83;100707.91;4817468;29;98519;-78
2023/07/18 07:22:47;;;;;;;17.83;16.42;;;;;;;42.56;17.54;100715.00;4813063;29;97061;-78
2023/07/18 07:25:14;;;;;;;17.40;16.30;;;;;;;42.48;17.46;100702.47;4809725;29;97989;-78
2023/07/18 07:27:43;;;;;;;18.38;17.15;;;;;;;42.25;17.66;100706.25;4818871;29;99405;-79
2023/07/18 07:30:17;;;;;;;18.88;17.20;;;;;;;42.58;17.20;100706.44;4812479;29;98425;-78
2023/07/18 07:32:53;;;;;;;18.00;16.80;;;;;;;42.25;17.74;100703.50;4807899;29;97179;-78
2023/07/18 07:35:24;;;;;;;18.73;17.52;;;;;;;41.51;17.64;100706.38;4816583;29;96836;-78
2023/07/18 07:37:51;;;;;;;18.70;17.50;;;;;;;41.25;18.16;100706.94;4816691;29;98809;-78
2023/07/18 07:40:18;;;;;;;17.85;16.75;;;;;;;41.81;17.53;100702.50;4811718;29;98479;-78
2023/07/18 07:42:44;;;;;;;18.05;16.85;;;;;;;42.31;17.03;100706.31;4811662;29;96754;-78
2023/07/18 07:45:11;;;;;;;18.48;17.38;;;;;;;42.12;17.36;100694.72;4823600;29;97007;-78
2023/07/18 07:47:37;;;;;;;17.90;16.80;;;;;;;42.41;17.06;100700.97;4807745;29;98781;-78
2023/07/18 07:50:03;;;;;;;18.23;17.13;;;;;;;41.22;17.84;100708.28;4820337;29;98522;-79
2023/07/18 07:52:29;;;;;;;17.85;16.65;;;;;;;41.98;17.53;100714.38;4811350;29;97093;-78
2023/07/18 07:54:55;;;;;;;16.73;15.73;;;;;;;42.50;17.10;100704.97;4814308;29;97156;-78
2023/07/18 07:57:21;;;;;;;18.27;17.08;;;;;;;42.67;16.39;100704.91;4802975;29;99388;-79
2023/07/18 07:59:48;;;;;;;18.35;17.13;;;;;;;42.48;16.40;100696.94;4820723;29;96805;-78
2023/07/18 08:02:14;;;;;;;17.48;16.38;;;;;;;42.49;16.53;100701.38;4824622;29;98298;-79
2023/07/18 08:04:41;;;;;;;17.40;16.30;;;;;;;42.48;16.72;100694.19;4815084;29;97614;-79
2023/07/18 08:07:09;;;;;;;17.05;16.05;;;;;;;42.50;16.68;100696.69;4819762;29;98660;-78
2023/07/18 08:09:36;;;;;;;16.92;15.93;;;;;;;42.14;17.58;100696.16;4817063;29;98249;-78
2023/07/18 08:12:03;;;;;;;17.42;16.42;;;;;;;42.05;17.12;100695.75;4817755;29;96833;-78
2023/07/18 08:14:29;;;;;;;17.73;16.55;;;;;;;42.87;17.10;100694.16;4815757;29;96779;-78
2023/07/18 08:16:55;;;;;;;17.13;16.02;;;;;;;42.31;17.36;100695.28;4815941;29;98877;-80
2023/07/18 08:19:22;;;;;;;16.98;15.98;;;;;;;42.63;16.64;100693.56;4818485;29;98910;-80
2023/07/18 08:21:48;;;;;;;16.45;15.40;;;;;;;42.94;16.85;100691.22;4822315;29;97232;-79
2023/07/18 08:24:14;;;;;;;18.02;16.63;;;;;;;43.09;17.04;100679.50;4818311;29;96831;-78
2023/07/18 08:26:41;;;;;;;16.70;15.77;;;;;;;43.35;16.52;100684.25;4813364;29;98559;-79
2023/07/18 08:29:06;;;;;;;17.17;16.08;;;;;;;42.27;17.30;100681.19;4820715;29;98860;-78
2023/07/18 08:31:32;;;;;;;17.42;16.30;;;;;;;42.00;17.54;100676.34;4822277;29;97328;-78
2023/07/18 08:33:58;;;;;;;18.50;17.30;;;;;;;41.56;17.67;100676.16;4822518;29;97474;-79
2023/07/18 08:36:24;;;;;;;18.60;17.30;;;;;;;41.99;17.51;100691.22;4816614;29;98725;-78
2023/07/18 08:38:49;;;;;;;17.50;16.42;;;;;;;41.60;17.40;100674.59;4818135;29;97346;-78
2023/07/18 08:41:20;;;;;;;19.48;17.98;;;;;;;40.64;17.73;100660.59;4817170;29;96843;-79
2023/07/18 08:43:46;;;;;;;20.52;18.67;;;;;;;41.43;17.84;100667.38;4814797;29;97345;-78
2023/07/18 08:46:13;;;;;;;18.58;17.13;;;;;;;41.67;17.73;100668.91;4816475;29;98957;-79
2023/07/18 08:48:43;;;;;;;18.85;17.38;;;;;;;41.35;17.63;100663.94;4813256;29;98355;-78
2023/07/18 08:51:10;;;;;;;21.50;19.77;;;;;;;40.91;18.23;100660.03;4819729;29;97346;-79
2023/07/18 08:53:37;;;;;;;23.15;20.77;;;;;;;39.20;19.93;100663.59;4798624;29;96926;-79
2023/07/18 08:56:03;;;;;;;23.13;20.77;;;;;;;38.75;20.45;100663.09;4810192;29;99074;-77
2023/07/18 08:58:29;;;;;;;18.50;17.10;;;;;;;38.66;20.43;100663.44;4815723;29;98413;-77
2023/07/18 09:00:54;;;;;;;18.80;17.40;;;;;;;37.56;20.85;100664.00;4816806;29;97267;-77
2023/07/18 09:03:20;;;;;;;19.08;17.58;;;;;;;37.31;21.27;100666.66;4818862;29;97010;-76
2023/07/18 09:05:45;;;;;;;20.58;19.02;;;;;;;36.61;21.89;100658.31;4814659;29;98974;-76
2023/07/18 09:08:11;;;;;;;20.13;18.63;;;;;;;36.89;21.51;100658.00;4799384;29;98572;-76
2023/07/18 09:10:36;;;;;;;19.65;18.13;;;;;;;35.94;22.14;100649.34;4812350;29;97409;-76
2023/07/18 09:13:04;;;;;;;19.13;17.83;;;;;;;35.03;22.48;100646.22;4816975;29;96920;-76
2023/07/18 09:15:33;;;;;;;18.90;17.42;;;;;;;34.14;22.47;100647.81;4812243;29;98831;-76
2023/07/18 09:18:01;;;;;;;19.60;18.10;;;;;;;34.14;23.45;100653.25;4818078;29;98505;-76
2023/07/18 09:20:28;;;;;;;18.65;17.20;;;;;;;33.68;23.52;100642.81;4799286;29;97089;-76
2023/07/18 09:22:57;;;;;;;21.55;19.52;;;;;;;33.41;24.12;100647.13;4818347;29;96803;-76
2023/07/18 09:25:24;;;;;;;18.42;17.17;;;;;;;33.53;24.15;100636.59;4813297;29;98822;-76
2023/07/18 09:27:53;;;;;;;18.95;17.45;;;;;;;33.06;24.88;100644.25;4812723;29;98345;-75
2023/07/18 09:30:23;;;;;;;17.63;16.60;;;;;;;33.26;24.84;100636.31;4813487;29;96786;-75
2023/07/18 09:32:51;;;;;;;18.83;17.35;;;;;;;32.09;25.52;100629.91;4810948;29;96914;-75
2023/07/18 09:35:16;;;;;;;16.75;15.55;;;;;;;32.64;25.00;100624.06;4798323;29;98619;-75
2023/07/18 09:37:46;;;;;;;16.52;15.43;;;;;;;32.50;25.51;100629.50;4811186;29;98452;-75
2023/07/18 09:40:15;;;;;;;;;;;;;;;32.11;25.67;100628.69;4817745;29;97715;-75
2023/07/18 09:42:43;;;;;;;16.85;15.55;;;;;;;32.21;24.93;100626.56;4815460;29;96937;-84
2023/07/18 09:45:10;;;;;;;16.48;15.48;;;;;;;32.12;24.80;100626.84;4815761;29;98926;-75
2023/07/18 09:47:38;;;;;;;16.88;15.77;;;;;;;31.40;24.77;100619.13;4813258;29;99039;-76
2023/07/18 09:50:04;;;;;;;16.23;15.15;;;;;;;30.91;25.83;100625.66;4822208;29;96824;-86
2023/07/18 09:52:33;;;;;;;17.00;16.00;;;;;;;30.75;26.17;100614.84;4812656;29;99420;-84
2023/07/18 09:54:58;;;;;;;17.50;16.40;;;;;;;31.16;25.92;100607.38;4801511;29;98726;-85
2023/07/18 09:57:24;;;;;;;17.23;16.23;;;;;;;31.11;26.33;100616.03;4817460;29;98421;-83
2023/07/18 09:59:50;;;;;;;16.15;15.15;;;;;;;30.97;26.12;100613.25;4817194;29;97155;-84
2023/07/18 10:02:17;;;;;;;17.15;15.70;;;;;;;31.09;26.08;100603.69;4799271;29;97415;-77
2023/07/18 10:04:43;;;;;;;17.92;16.70;;;;;;;31.12;25.98;100606.03;4807899;29;98805;-77
2023/07/18 10:07:09;;;;;;;17.80;16.50;;;;;;;30.56;26.36;100602.59;4817262;29;98645;-80
2023/07/18 10:09:35;;;;;;;18.60;17.23;;;;;;;30.73;27.13;100609.63;4808340;29;97920;-87
2023/07/18 10:12:03;;;;;;;18.15;16.77;;;;;;;30.99;26.72;100598.50;4821927;29;97503;-87
2023/07/18 10:14:30;;;;;;;20.73;18.92;;;;;;;31.13;26.57;100605.03;4815607;29;99059;-87
2023/07/18 10:16:59;;;;;;;20.20;18.27;;;;;;;30.94;26.10;100583.81;4817482;29;98422;-89
2023/07/18 10:19:25;;;;;;;18.35;16.88;;;;;;;31.20;26.43;100589.72;4819832;29;96857;-87
2023/07/18 10:21:53;;;;;;;17.15;15.80;;;;;;;30.74;26.09;100586.09;4813878;29;97755;-87
2023/07/18 10:24:20;;;;;;;17.67;16.48;;;;;;;30.88;25.72;100578.06;4806327;29;98728;-86
2023/07/18 10:27:06;;;;;;;18.38;16.90;;;;;;;30.94;26.48;100568.38;4812760;29;98679;-88
2023/07/18 10:29:32;;;;;;;18.48;17.17;;;;;;;30.53;26.25;100565.03;4815153;29;97348;-87
2023/07/18 10:32:00;;;;;;;28.45;22.45;;;;;;;30.76;27.45;100563.22;4827942;29;97355;-87
2023/07/18 10:34:25;;;;;;;20.85;18.13;;;;;;;30.93;27.37;100557.75;4818321;29;97714;-87
2023/07/18 10:36:59;;;;;;;23.17;20.65;;;;;;;30.89;28.34;100571.66;4815668;29;98581;-86
2023/07/18 10:39:40;;;;;;;25.33;21.65;;;;;;;30.99;27.87;100566.00;4817831;29;97006;-88
2023/07/18 10:42:09;;;;;;;;;;;;;;;30.58;26.64;100554.53;4815596;29;96740;-88
2023/07/18 10:44:36;;;;;;;18.77;17.10;;;;;;;30.59;27.37;100551.63;4818271;29;99327;-87
2023/07/18 10:47:14;;;;;;;18.10;16.60;;;;;;;30.55;27.36;100544.88;4801439;29;97412;-88
2023/07/18 10:49:39;;;;;;;20.27;18.48;;;;;;;30.68;27.43;100553.25;4813937;29;97542;-87
2023/07/18 10:52:06;;;;;;;21.67;19.42;;;;;;;30.79;28.22;100552.06;4816488;29;97563;-87
2023/07/18 10:54:31;;;;;;;18.00;16.58;;;;;;;30.57;27.44;100550.94;4813655;29;98827;-78
2023/07/18 10:56:57;;;;;;;18.33;17.13;;;;;;;30.13;27.57;100545.16;4817687;29;98512;-73
2023/07/18 10:59:22;;;;;;;18.55;16.90;;;;;;;29.04;28.79;100544.56;4815546;29;96812;-73
2023/07/18 11:01:48;;;;;;;17.95;16.55;;;;;;;29.53;29.80;100530.22;4816747;29;97334;-73
2023/07/18 11:04:13;;;;;;;16.67;15.48;;;;;;;28.92;28.73;100531.53;4819114;29;98717;-73
2023/07/18 11:06:59;;;;;;;17.75;16.45;;;;;;;29.03;28.53;100526.69;4828464;29;98602;-73
2023/07/18 11:09:25;;;;;;;18.38;16.73;;;;;;;28.75;30.29;100519.84;4800246;29;97341;-73